sensor_id;sensor_type;location;lat;lon;timestamp;temperature;humidity
61896;DHT22;47835;52.778;5.956;2023-10-31T00:00:25;10.10;99.90
61896;DHT22;47835;52.778;5.956;2023-10-31T00:02:50;10.10;99.90
61896;DHT22;47835;52.778;5.956;2023-10-31T00:05:16;10.10;99.90
61896;DHT22;47835;52.778;5.956;2023-10-31T00:07:41;10.10;99.90
61896;DHT22;47835;52.778;5.956;2023-10-31T00:10:07;10.00;99.90
61896;DHT22;47835;52.778;5.956;2023-10-31T00:12:34;10.00;99.90
61896;DHT22;47835;52.778;5.956;2023-10-31T00:14:59;10.00;99.90
61896;DHT22;47835;52.778;5.956;2023-10-31T00:17:25;10.00;99.90
61896;DHT22;47835;52.778;5.956;2023-10-31T00:19:51;10.00;99.90
61896;DHT22;47835;52.778;5.956;2023-10-31T00:22:16;10.00;99.90
61896;DHT22;47835;52.778;5.956;2023-10-31T00:24:43;10.00;99.90
61896;DHT22;47835;52.778;5.956;2023-10-31T00:27:08;10.00;99.90
61896;DHT22;47835;52.778;5.956;2023-10-31T00:29:34;9.90;99.90
61896;DHT22;47835;52.778;5.956;2023-10-31T00:32:00;10.00;99.90
61896;DHT22;47835;52.778;5.956;2023-10-31T00:34:25;10.00;99.90
61896;DHT22;47835;52.778;5.956;2023-10-31T00:36:51;9.90;99.90
61896;DHT22;47835;52.778;5.956;2023-10-31T00:39:16;9.90;99.90
61896;DHT22;47835;52.778;5.956;2023-10-31T00:41:45;9.90;99.90
61896;DHT22;47835;52.778;5.956;2023-10-31T00:44:12;9.90;99.90
61896;DHT22;47835;52.778;5.956;2023-10-31T00:46:37;9.90;99.90
61896;DHT22;47835;52.778;5.956;2023-10-31T00:49:03;9.90;99.90
61896;DHT22;47835;52.778;5.956;2023-10-31T00:51:29;9.80;99.90
61896;DHT22;47835;52.778;5.956;2023-10-31T00:53:54;9.80;99.90
61896;DHT22;47835;52.778;5.956;2023-10-31T00:56:20;9.80;99.90
61896;DHT22;47835;52.778;5.956;2023-10-31T00:58:45;9.80;99.90
61896;DHT22;47835;52.778;5.956;2023-10-31T01:01:11;9.80;99.90
61896;DHT22;47835;52.778;5.956;2023-10-31T01:03:37;9.80;99.90
61896;DHT22;47835;52.778;5.956;2023-10-31T01:06:03;9.80;99.90
61896;DHT22;47835;52.778;5.956;2023-10-31T01:08:29;9.80;99.90
61896;DHT22;47835;52.778;5.956;2023-10-31T01:10:55;9.80;99.90
61896;DHT22;47835;52.778;5.956;2023-10-31T01:13:21;9.80;99.90
61896;DHT22;47835;52.778;5.956;2023-10-31T01:15:47;9.80;99.90
61896;DHT22;47835;52.778;5.956;2023-10-31T01:18:12;9.80;99.90
61896;DHT22;47835;52.778;5.956;2023-10-31T01:20:38;9.80;99.90
61896;DHT22;47835;52.778;5.956;2023-10-31T01:23:04;9.80;99.90
61896;DHT22;47835;52.778;5.956;2023-10-31T01:25:29;9.80;99.90
61896;DHT22;47835;52.778;5.956;2023-10-31T01:27:55;9.80;99.90
61896;DHT22;47835;52.778;5.956;2023-10-31T01:30:20;9.80;99.90
61896;DHT22;47835;52.778;5.956;2023-10-31T01:32:46;9.80;99.90
61896;DHT22;47835;52.778;5.956;2023-10-31T01:35:12;9.80;99.90
61896;DHT22;47835;52.778;5.956;2023-10-31T01:37:37;9.90;99.90
61896;DHT22;47835;52.778;5.956;2023-10-31T01:40:03;9.90;99.90
61896;DHT22;47835;52.778;5.956;2023-10-31T01:42:32;9.80;99.90
61896;DHT22;47835;52.778;5.956;2023-10-31T01:44:57;9.80;99.90
61896;DHT22;47835;52.778;5.956;2023-10-31T01:47:23;9.80;99.90
61896;DHT22;47835;52.778;5.956;2023-10-31T01:49:50;9.90;99.90
61896;DHT22;47835;52.778;5.956;2023-10-31T01:52:16;9.90;99.90
61896;DHT22;47835;52.778;5.956;2023-10-31T01:54:43;9.90;99.90
61896;DHT22;47835;52.778;5.956;2023-10-31T01:57:09;9.90;99.90
61896;DHT22;47835;52.778;5.956;2023-10-31T01:59:35;9.90;99.90
61896;DHT22;47835;52.778;5.956;2023-10-31T02:02:01;10.00;99.90
61896;DHT22;47835;52.778;5.956;2023-10-31T02:04:27;9.90;99.90
61896;DHT22;47835;52.778;5.956;2023-10-31T02:06:52;10.00;99.90
61896;DHT22;47835;52.778;5.956;2023-10-31T02:09:18;10.00;99.90
61896;DHT22;47835;52.778;5.956;2023-10-31T02:11:43;9.90;99.90
61896;DHT22;47835;52.778;5.956;2023-10-31T02:14:09;9.90;99.90
61896;DHT22;47835;52.778;5.956;2023-10-31T02:16:34;9.90;99.90
61896;DHT22;47835;52.778;5.956;2023-10-31T02:19:00;9.90;99.90
61896;DHT22;47835;52.778;5.956;2023-10-31T02:21:26;10.00;99.90
61896;DHT22;47835;52.778;5.956;2023-10-31T02:24:00;10.00;99.90
61896;DHT22;47835;52.778;5.956;2023-10-31T02:26:32;10.00;99.90
61896;DHT22;47835;52.778;5.956;2023-10-31T02:28:58;10.00;99.90
61896;DHT22;47835;52.778;5.956;2023-10-31T02:31:25;10.10;99.90
61896;DHT22;47835;52.778;5.956;2023-10-31T02:33:51;10.10;99.90
61896;DHT22;47835;52.778;5.956;2023-10-31T02:36:16;10.10;99.90
61896;DHT22;47835;52.778;5.956;2023-10-31T02:38:42;10.10;99.90
61896;DHT22;47835;52.778;5.956;2023-10-31T02:41:08;10.10;99.90
61896;DHT22;47835;52.778;5.956;2023-10-31T02:43:33;10.20;99.90
61896;DHT22;47835;52.778;5.956;2023-10-31T02:45:59;10.20;99.90
61896;DHT22;47835;52.778;5.956;2023-10-31T02:48:26;10.20;99.90
61896;DHT22;47835;52.778;5.956;2023-10-31T02:50:52;10.20;99.90
61896;DHT22;47835;52.778;5.956;2023-10-31T02:53:21;10.20;99.90
61896;DHT22;47835;52.778;5.956;2023-10-31T02:55:46;10.20;99.90
61896;DHT22;47835;52.778;5.956;2023-10-31T02:58:12;10.20;99.90
61896;DHT22;47835;52.778;5.956;2023-10-31T03:00:37;10.20;99.90
61896;DHT22;47835;52.778;5.956;2023-10-31T03:03:03;10.10;99.90
61896;DHT22;47835;52.778;5.956;2023-10-31T03:05:29;10.10;99.90
61896;DHT22;47835;52.778;5.956;2023-10-31T03:07:55;10.10;99.90
61896;DHT22;47835;52.778;5.956;2023-10-31T03:10:21;10.10;99.90
61896;DHT22;47835;52.778;5.956;2023-10-31T03:12:47;10.10;99.90
61896;DHT22;47835;52.778;5.956;2023-10-31T03:15:13;10.10;99.90
61896;DHT22;47835;52.778;5.956;2023-10-31T03:17:39;10.10;99.90
61896;DHT22;47835;52.778;5.956;2023-10-31T03:20:05;10.10;99.90
61896;DHT22;47835;52.778;5.956;2023-10-31T03:22:30;10.10;99.90
61896;DHT22;47835;52.778;5.956;2023-10-31T03:24:56;10.10;99.90
61896;DHT22;47835;52.778;5.956;2023-10-31T03:27:22;10.10;99.90
61896;DHT22;47835;52.778;5.956;2023-10-31T03:29:48;10.10;99.90
61896;DHT22;47835;52.778;5.956;2023-10-31T03:32:14;10.10;99.90
61896;DHT22;47835;52.778;5.956;2023-10-31T03:34:41;10.10;99.90
61896;DHT22;47835;52.778;5.956;2023-10-31T03:37:07;10.10;99.90
61896;DHT22;47835;52.778;5.956;2023-10-31T03:39:32;10.10;99.90
61896;DHT22;47835;52.778;5.956;2023-10-31T03:41:59;10.10;99.90
61896;DHT22;47835;52.778;5.956;2023-10-31T03:44:24;10.10;99.90
61896;DHT22;47835;52.778;5.956;2023-10-31T03:46:50;10.00;99.90
61896;DHT22;47835;52.778;5.956;2023-10-31T03:49:16;10.10;99.90
61896;DHT22;47835;52.778;5.956;2023-10-31T03:51:41;10.00;99.90
61896;DHT22;47835;52.778;5.956;2023-10-31T03:54:08;10.00;99.90
61896;DHT22;47835;52.778;5.956;2023-10-31T03:56:43;10.00;99.90
61896;DHT22;47835;52.778;5.956;2023-10-31T03:59:09;10.00;99.90
61896;DHT22;47835;52.778;5.956;2023-10-31T04:01:35;10.00;99.90
61896;DHT22;47835;52.778;5.956;2023-10-31T04:04:01;10.10;99.90
61896;DHT22;47835;52.778;5.956;2023-10-31T04:06:27;10.00;99.90
61896;DHT22;47835;52.778;5.956;2023-10-31T04:08:52;10.10;99.90
61896;DHT22;47835;52.778;5.956;2023-10-31T04:11:18;10.00;99.90
61896;DHT22;47835;52.778;5.956;2023-10-31T04:13:43;10.00;99.90
61896;DHT22;47835;52.778;5.956;2023-10-31T04:16:09;10.10;99.90
61896;DHT22;47835;52.778;5.956;2023-10-31T04:18:36;10.10;99.90
61896;DHT22;47835;52.778;5.956;2023-10-31T04:21:01;10.10;99.90
61896;DHT22;47835;52.778;5.956;2023-10-31T04:23:27;10.10;99.90
61896;DHT22;47835;52.778;5.956;2023-10-31T04:25:53;10.10;99.90
61896;DHT22;47835;52.778;5.956;2023-10-31T04:28:19;10.10;99.90
61896;DHT22;47835;52.778;5.956;2023-10-31T04:30:44;10.10;99.90
61896;DHT22;47835;52.778;5.956;2023-10-31T04:33:10;10.20;99.90
61896;DHT22;47835;52.778;5.956;2023-10-31T04:35:36;10.20;99.90
61896;DHT22;47835;52.778;5.956;2023-10-31T04:38:01;10.20;99.90
61896;DHT22;47835;52.778;5.956;2023-10-31T04:40:27;10.20;99.90
61896;DHT22;47835;52.778;5.956;2023-10-31T04:42:53;10.20;99.90
61896;DHT22;47835;52.778;5.956;2023-10-31T04:45:19;10.20;99.90
61896;DHT22;47835;52.778;5.956;2023-10-31T04:47:45;10.20;99.90
61896;DHT22;47835;52.778;5.956;2023-10-31T04:50:10;10.20;99.90
61896;DHT22;47835;52.778;5.956;2023-10-31T04:52:36;10.20;99.90
61896;DHT22;47835;52.778;5.956;2023-10-31T04:55:02;10.20;99.90
61896;DHT22;47835;52.778;5.956;2023-10-31T04:57:27;10.20;99.90
61896;DHT22;47835;52.778;5.956;2023-10-31T04:59:53;10.20;99.90
61896;DHT22;47835;52.778;5.956;2023-10-31T05:02:22;10.20;99.90
61896;DHT22;47835;52.778;5.956;2023-10-31T05:04:48;10.20;99.90
61896;DHT22;47835;52.778;5.956;2023-10-31T05:07:17;10.20;99.90
61896;DHT22;47835;52.778;5.956;2023-10-31T05:09:42;10.20;99.90
61896;DHT22;47835;52.778;5.956;2023-10-31T05:12:08;10.20;99.90
61896;DHT22;47835;52.778;5.956;2023-10-31T05:14:34;10.20;99.90
61896;DHT22;47835;52.778;5.956;2023-10-31T05:16:59;10.10;99.90
61896;DHT22;47835;52.778;5.956;2023-10-31T05:19:25;10.10;99.90
61896;DHT22;47835;52.778;5.956;2023-10-31T05:21:51;10.10;99.90
61896;DHT22;47835;52.778;5.956;2023-10-31T05:24:17;10.10;99.90
61896;DHT22;47835;52.778;5.956;2023-10-31T05:26:43;10.00;99.90
61896;DHT22;47835;52.778;5.956;2023-10-31T05:29:09;10.00;99.90
61896;DHT22;47835;52.778;5.956;2023-10-31T05:31:34;10.00;99.90
61896;DHT22;47835;52.778;5.956;2023-10-31T05:34:00;10.00;99.90
61896;DHT22;47835;52.778;5.956;2023-10-31T05:36:26;10.00;99.90
61896;DHT22;47835;52.778;5.956;2023-10-31T05:38:53;10.00;99.90
61896;DHT22;47835;52.778;5.956;2023-10-31T05:41:19;10.10;99.90
61896;DHT22;47835;52.778;5.956;2023-10-31T05:43:44;10.00;99.90
61896;DHT22;47835;52.778;5.956;2023-10-31T05:46:10;10.10;99.90
61896;DHT22;47835;52.778;5.956;2023-10-31T05:48:41;10.10;99.90
61896;DHT22;47835;52.778;5.956;2023-10-31T05:51:14;10.10;99.90
61896;DHT22;47835;52.778;5.956;2023-10-31T05:53:40;10.20;99.90
61896;DHT22;47835;52.778;5.956;2023-10-31T05:56:06;10.20;99.90
61896;DHT22;47835;52.778;5.956;2023-10-31T05:58:33;10.30;99.90
61896;DHT22;47835;52.778;5.956;2023-10-31T06:00:58;10.30;99.90
61896;DHT22;47835;52.778;5.956;2023-10-31T06:03:24;10.40;99.90
61896;DHT22;47835;52.778;5.956;2023-10-31T06:05:49;10.40;99.90
61896;DHT22;47835;52.778;5.956;2023-10-31T06:08:15;10.50;99.90
61896;DHT22;47835;52.778;5.956;2023-10-31T06:10:41;10.50;99.90
61896;DHT22;47835;52.778;5.956;2023-10-31T06:13:06;10.50;99.90
61896;DHT22;47835;52.778;5.956;2023-10-31T06:15:32;10.50;99.90
61896;DHT22;47835;52.778;5.956;2023-10-31T06:17:58;10.50;99.90
61896;DHT22;47835;52.778;5.956;2023-10-31T06:20:23;10.60;99.90
61896;DHT22;47835;52.778;5.956;2023-10-31T06:22:49;10.50;99.90
61896;DHT22;47835;52.778;5.956;2023-10-31T06:25:14;10.50;99.90
61896;DHT22;47835;52.778;5.956;2023-10-31T06:27:40;10.50;99.90
61896;DHT22;47835;52.778;5.956;2023-10-31T06:30:06;10.60;99.90
61896;DHT22;47835;52.778;5.956;2023-10-31T06:32:32;10.60;99.90
61896;DHT22;47835;52.778;5.956;2023-10-31T06:34:57;10.60;99.90
61896;DHT22;47835;52.778;5.956;2023-10-31T06:37:23;10.60;99.90
61896;DHT22;47835;52.778;5.956;2023-10-31T06:39:49;10.60;99.90
61896;DHT22;47835;52.778;5.956;2023-10-31T06:42:14;10.60;99.90
61896;DHT22;47835;52.778;5.956;2023-10-31T06:44:40;10.60;99.90
61896;DHT22;47835;52.778;5.956;2023-10-31T06:47:05;10.60;99.90
61896;DHT22;47835;52.778;5.956;2023-10-31T06:49:31;10.60;99.90
61896;DHT22;47835;52.778;5.956;2023-10-31T06:51:57;10.60;99.90
61896;DHT22;47835;52.778;5.956;2023-10-31T06:54:22;10.60;99.90
61896;DHT22;47835;52.778;5.956;2023-10-31T06:56:48;10.60;99.90
61896;DHT22;47835;52.778;5.956;2023-10-31T06:59:17;10.60;99.90
61896;DHT22;47835;52.778;5.956;2023-10-31T07:01:42;10.60;99.90
61896;DHT22;47835;52.778;5.956;2023-10-31T07:04:10;10.60;99.90
61896;DHT22;47835;52.778;5.956;2023-10-31T07:06:36;10.60;99.90
61896;DHT22;47835;52.778;5.956;2023-10-31T07:09:01;10.60;99.90
61896;DHT22;47835;52.778;5.956;2023-10-31T07:11:30;10.60;99.90
61896;DHT22;47835;52.778;5.956;2023-10-31T07:14:00;10.60;99.90
61896;DHT22;47835;52.778;5.956;2023-10-31T07:16:26;10.60;99.90
61896;DHT22;47835;52.778;5.956;2023-10-31T07:18:51;10.50;99.90
61896;DHT22;47835;52.778;5.956;2023-10-31T07:21:17;10.50;99.90
61896;DHT22;47835;52.778;5.956;2023-10-31T07:23:42;10.50;99.90
61896;DHT22;47835;52.778;5.956;2023-10-31T07:26:09;10.50;99.90
61896;DHT22;47835;52.778;5.956;2023-10-31T07:28:35;10.50;99.90
61896;DHT22;47835;52.778;5.956;2023-10-31T07:31:01;10.50;99.90
61896;DHT22;47835;52.778;5.956;2023-10-31T07:33:27;10.50;99.90
61896;DHT22;47835;52.778;5.956;2023-10-31T07:35:52;10.60;99.90
61896;DHT22;47835;52.778;5.956;2023-10-31T07:38:18;10.60;99.90
61896;DHT22;47835;52.778;5.956;2023-10-31T07:40:43;10.60;99.90
61896;DHT22;47835;52.778;5.956;2023-10-31T07:43:09;10.60;99.90
61896;DHT22;47835;52.778;5.956;2023-10-31T07:45:35;10.60;99.90
61896;DHT22;47835;52.778;5.956;2023-10-31T07:48:01;10.70;99.90
61896;DHT22;47835;52.778;5.956;2023-10-31T07:50:27;10.70;99.90
61896;DHT22;47835;52.778;5.956;2023-10-31T07:52:53;10.70;99.90
61896;DHT22;47835;52.778;5.956;2023-10-31T07:55:18;10.70;99.90
61896;DHT22;47835;52.778;5.956;2023-10-31T07:57:44;10.70;99.90
61896;DHT22;47835;52.778;5.956;2023-10-31T08:00:11;10.70;99.90
61896;DHT22;47835;52.778;5.956;2023-10-31T08:02:37;10.70;99.90
61896;DHT22;47835;52.778;5.956;2023-10-31T08:05:02;10.80;99.90
61896;DHT22;47835;52.778;5.956;2023-10-31T08:07:28;10.80;99.90
61896;DHT22;47835;52.778;5.956;2023-10-31T08:09:58;11.00;99.90
61896;DHT22;47835;52.778;5.956;2023-10-31T08:12:24;10.90;99.90
61896;DHT22;47835;52.778;5.956;2023-10-31T08:14:52;11.00;99.90
61896;DHT22;47835;52.778;5.956;2023-10-31T08:17:18;11.10;99.90
61896;DHT22;47835;52.778;5.956;2023-10-31T08:19:43;11.10;99.90
61896;DHT22;47835;52.778;5.956;2023-10-31T08:22:09;11.20;99.90
61896;DHT22;47835;52.778;5.956;2023-10-31T08:24:34;11.20;99.90
61896;DHT22;47835;52.778;5.956;2023-10-31T08:27:02;11.30;99.90
61896;DHT22;47835;52.778;5.956;2023-10-31T08:29:27;11.30;99.90
61896;DHT22;47835;52.778;5.956;2023-10-31T08:31:54;11.40;99.90
61896;DHT22;47835;52.778;5.956;2023-10-31T08:34:19;11.50;99.90
61896;DHT22;47835;52.778;5.956;2023-10-31T08:36:45;11.60;99.90
61896;DHT22;47835;52.778;5.956;2023-10-31T08:39:10;11.70;99.90
61896;DHT22;47835;52.778;5.956;2023-10-31T08:41:36;11.70;99.90
61896;DHT22;47835;52.778;5.956;2023-10-31T08:44:04;11.70;99.90
61896;DHT22;47835;52.778;5.956;2023-10-31T08:46:30;11.70;99.90
61896;DHT22;47835;52.778;5.956;2023-10-31T08:48:56;11.90;99.90
61896;DHT22;47835;52.778;5.956;2023-10-31T08:51:21;11.80;99.90
61896;DHT22;47835;52.778;5.956;2023-10-31T08:53:48;11.80;99.90
61896;DHT22;47835;52.778;5.956;2023-10-31T08:56:14;12.00;99.90
61896;DHT22;47835;52.778;5.956;2023-10-31T08:58:39;12.00;99.90
61896;DHT22;47835;52.778;5.956;2023-10-31T09:01:06;12.10;99.90
61896;DHT22;47835;52.778;5.956;2023-10-31T09:03:31;12.00;99.90
61896;DHT22;47835;52.778;5.956;2023-10-31T09:05:57;12.10;99.90
61896;DHT22;47835;52.778;5.956;2023-10-31T09:08:22;12.10;99.90
61896;DHT22;47835;52.778;5.956;2023-10-31T09:10:48;12.10;99.90
61896;DHT22;47835;52.778;5.956;2023-10-31T09:13:14;12.20;99.90
61896;DHT22;47835;52.778;5.956;2023-10-31T09:15:39;12.30;99.90
61896;DHT22;47835;52.778;5.956;2023-10-31T09:18:06;12.40;99.90
61896;DHT22;47835;52.778;5.956;2023-10-31T09:20:32;12.50;99.90
61896;DHT22;47835;52.778;5.956;2023-10-31T09:22:57;12.50;99.90
61896;DHT22;47835;52.778;5.956;2023-10-31T09:25:23;12.50;99.90
61896;DHT22;47835;52.778;5.956;2023-10-31T09:27:49;12.60;99.90
61896;DHT22;47835;52.778;5.956;2023-10-31T09:30:14;12.60;99.90
61896;DHT22;47835;52.778;5.956;2023-10-31T09:32:40;12.70;99.90
61896;DHT22;47835;52.778;5.956;2023-10-31T09:35:06;12.70;99.90
61896;DHT22;47835;52.778;5.956;2023-10-31T09:37:33;12.80;99.90
61896;DHT22;47835;52.778;5.956;2023-10-31T09:39:59;12.90;99.90
61896;DHT22;47835;52.778;5.956;2023-10-31T09:42:24;12.90;99.90
61896;DHT22;47835;52.778;5.956;2023-10-31T09:44:50;13.10;99.90
61896;DHT22;47835;52.778;5.956;2023-10-31T09:47:16;13.20;99.90
61896;DHT22;47835;52.778;5.956;2023-10-31T09:49:43;13.30;99.90
61896;DHT22;47835;52.778;5.956;2023-10-31T09:52:10;13.30;99.90
61896;DHT22;47835;52.778;5.956;2023-10-31T09:54:37;13.40;99.90
61896;DHT22;47835;52.778;5.956;2023-10-31T09:57:03;13.20;99.90
61896;DHT22;47835;52.778;5.956;2023-10-31T09:59:29;13.00;99.90
61896;DHT22;47835;52.778;5.956;2023-10-31T10:01:55;13.10;99.90
61896;DHT22;47835;52.778;5.956;2023-10-31T10:04:21;13.00;99.90
61896;DHT22;47835;52.778;5.956;2023-10-31T10:06:51;12.90;99.90
61896;DHT22;47835;52.778;5.956;2023-10-31T10:09:17;13.00;99.90
61896;DHT22;47835;52.778;5.956;2023-10-31T10:11:43;12.80;99.90
61896;DHT22;47835;52.778;5.956;2023-10-31T10:14:08;12.80;99.90
61896;DHT22;47835;52.778;5.956;2023-10-31T10:16:35;12.60;99.90
61896;DHT22;47835;52.778;5.956;2023-10-31T10:19:18;12.60;99.90
61896;DHT22;47835;52.778;5.956;2023-10-31T10:21:53;12.60;99.90
61896;DHT22;47835;52.778;5.956;2023-10-31T10:24:20;12.60;99.90
61896;DHT22;47835;52.778;5.956;2023-10-31T10:26:46;12.60;99.90
61896;DHT22;47835;52.778;5.956;2023-10-31T10:29:12;12.60;99.90
61896;DHT22;47835;52.778;5.956;2023-10-31T10:31:38;12.60;99.90
61896;DHT22;47835;52.778;5.956;2023-10-31T10:34:04;12.60;99.90
61896;DHT22;47835;52.778;5.956;2023-10-31T10:36:32;12.50;99.90
61896;DHT22;47835;52.778;5.956;2023-10-31T10:38:58;12.50;99.90
61896;DHT22;47835;52.778;5.956;2023-10-31T10:41:28;12.60;99.90
61896;DHT22;47835;52.778;5.956;2023-10-31T10:44:05;12.60;99.90
61896;DHT22;47835;52.778;5.956;2023-10-31T10:46:34;12.60;99.90
61896;DHT22;47835;52.778;5.956;2023-10-31T10:49:03;12.50;99.90
61896;DHT22;47835;52.778;5.956;2023-10-31T10:57:32;12.20;99.90
61896;DHT22;47835;52.778;5.956;2023-10-31T11:00:05;12.60;99.90
61896;DHT22;47835;52.778;5.956;2023-10-31T11:02:39;13.10;99.90
61896;DHT22;47835;52.778;5.956;2023-10-31T11:05:06;13.20;99.90
61896;DHT22;47835;52.778;5.956;2023-10-31T11:07:37;12.90;99.90
61896;DHT22;47835;52.778;5.956;2023-10-31T11:10:03;12.80;99.90
61896;DHT22;47835;52.778;5.956;2023-10-31T11:12:30;12.80;99.90
61896;DHT22;47835;52.778;5.956;2023-10-31T11:14:57;13.00;99.90
61896;DHT22;47835;52.778;5.956;2023-10-31T11:17:26;13.20;99.90
61896;DHT22;47835;52.778;5.956;2023-10-31T11:19:54;13.30;99.90
61896;DHT22;47835;52.778;5.956;2023-10-31T11:22:22;13.30;99.90
61896;DHT22;47835;52.778;5.956;2023-10-31T11:24:51;13.00;99.90
61896;DHT22;47835;52.778;5.956;2023-10-31T11:27:20;12.70;99.90
61896;DHT22;47835;52.778;5.956;2023-10-31T11:29:47;12.60;99.90
61896;DHT22;47835;52.778;5.956;2023-10-31T11:32:14;12.60;99.90
61896;DHT22;47835;52.778;5.956;2023-10-31T11:34:41;12.70;99.90
61896;DHT22;47835;52.778;5.956;2023-10-31T11:37:33;13.10;99.90
61896;DHT22;47835;52.778;5.956;2023-10-31T11:42:53;13.90;99.90
61896;DHT22;47835;52.778;5.956;2023-10-31T11:45:40;14.40;99.90
61896;DHT22;47835;52.778;5.956;2023-10-31T11:48:13;14.70;99.90
61896;DHT22;47835;52.778;5.956;2023-10-31T11:50:40;14.90;99.90
61896;DHT22;47835;52.778;5.956;2023-10-31T11:55:44;14.90;99.90
61896;DHT22;47835;52.778;5.956;2023-10-31T11:58:22;14.70;99.90
61896;DHT22;47835;52.778;5.956;2023-10-31T12:00:50;14.30;99.90
61896;DHT22;47835;52.778;5.956;2023-10-31T12:03:25;14.00;99.90
61896;DHT22;47835;52.778;5.956;2023-10-31T12:05:52;14.50;99.90
61896;DHT22;47835;52.778;5.956;2023-10-31T12:08:31;14.90;99.90
61896;DHT22;47835;52.778;5.956;2023-10-31T12:13:29;15.00;99.90
61896;DHT22;47835;52.778;5.956;2023-10-31T12:15:55;15.00;99.90
61896;DHT22;47835;52.778;5.956;2023-10-31T12:18:20;15.30;99.90
61896;DHT22;47835;52.778;5.956;2023-10-31T12:20:50;15.50;99.90
61896;DHT22;47835;52.778;5.956;2023-10-31T12:23:17;15.10;99.90
61896;DHT22;47835;52.778;5.956;2023-10-31T12:25:53;15.30;99.90
61896;DHT22;47835;52.778;5.956;2023-10-31T12:28:23;15.70;99.90
61896;DHT22;47835;52.778;5.956;2023-10-31T12:30:52;15.80;99.90
61896;DHT22;47835;52.778;5.956;2023-10-31T12:33:26;16.00;99.90
61896;DHT22;47835;52.778;5.956;2023-10-31T12:35:59;16.00;99.90
61896;DHT22;47835;52.778;5.956;2023-10-31T12:38:29;16.20;99.90
61896;DHT22;47835;52.778;5.956;2023-10-31T12:40:55;15.50;99.90
61896;DHT22;47835;52.778;5.956;2023-10-31T12:43:25;15.50;99.90
61896;DHT22;47835;52.778;5.956;2023-10-31T12:45:51;15.20;99.90
61896;DHT22;47835;52.778;5.956;2023-10-31T12:48:23;14.90;99.90
61896;DHT22;47835;52.778;5.956;2023-10-31T12:50:49;14.40;99.90
61896;DHT22;47835;52.778;5.956;2023-10-31T12:53:23;14.50;99.90
61896;DHT22;47835;52.778;5.956;2023-10-31T12:55:49;15.30;99.90
61896;DHT22;47835;52.778;5.956;2023-10-31T12:58:29;15.60;99.90
61896;DHT22;47835;52.778;5.956;2023-10-31T13:00:55;15.20;99.90
61896;DHT22;47835;52.778;5.956;2023-10-31T13:03:24;16.60;99.90
61896;DHT22;47835;52.778;5.956;2023-10-31T13:06:12;17.40;99.90
61896;DHT22;47835;52.778;5.956;2023-10-31T13:08:57;18.10;99.90
61896;DHT22;47835;52.778;5.956;2023-10-31T13:11:56;18.70;99.50
61896;DHT22;47835;52.778;5.956;2023-10-31T13:14:34;19.10;96.60
61896;DHT22;47835;52.778;5.956;2023-10-31T13:17:02;18.90;95.40
61896;DHT22;47835;52.778;5.956;2023-10-31T13:19:31;18.50;96.20
61896;DHT22;47835;52.778;5.956;2023-10-31T13:21:57;18.70;95.10
61896;DHT22;47835;52.778;5.956;2023-10-31T13:24:25;19.40;93.50
61896;DHT22;47835;52.778;5.956;2023-10-31T13:26:51;19.20;92.30
61896;DHT22;47835;52.778;5.956;2023-10-31T13:29:20;18.40;94.60
61896;DHT22;47835;52.778;5.956;2023-10-31T13:31:45;17.60;95.80
61896;DHT22;47835;52.778;5.956;2023-10-31T13:34:11;17.00;99.20
61896;DHT22;47835;52.778;5.956;2023-10-31T13:36:39;17.30;99.90
61896;DHT22;47835;52.778;5.956;2023-10-31T13:39:07;16.70;99.90
61896;DHT22;47835;52.778;5.956;2023-10-31T13:41:34;16.50;99.90
61896;DHT22;47835;52.778;5.956;2023-10-31T13:44:18;16.20;99.90
61896;DHT22;47835;52.778;5.956;2023-10-31T13:46:44;15.80;99.90
61896;DHT22;47835;52.778;5.956;2023-10-31T13:49:10;15.90;99.90
61896;DHT22;47835;52.778;5.956;2023-10-31T13:51:37;15.60;99.90
61896;DHT22;47835;52.778;5.956;2023-10-31T13:54:06;15.70;99.90
61896;DHT22;47835;52.778;5.956;2023-10-31T13:56:31;16.30;99.90
61896;DHT22;47835;52.778;5.956;2023-10-31T13:58:58;15.80;99.90
61896;DHT22;47835;52.778;5.956;2023-10-31T14:04:56;15.70;99.90
61896;DHT22;47835;52.778;5.956;2023-10-31T14:07:43;15.70;99.90
61896;DHT22;47835;52.778;5.956;2023-10-31T14:10:21;16.00;99.90
61896;DHT22;47835;52.778;5.956;2023-10-31T14:12:52;15.90;99.90
61896;DHT22;47835;52.778;5.956;2023-10-31T14:15:24;15.80;99.90
61896;DHT22;47835;52.778;5.956;2023-10-31T14:17:52;15.10;99.90
61896;DHT22;47835;52.778;5.956;2023-10-31T14:20:18;14.70;99.90
61896;DHT22;47835;52.778;5.956;2023-10-31T14:22:50;14.20;99.90
61896;DHT22;47835;52.778;5.956;2023-10-31T14:25:16;13.60;99.90
61896;DHT22;47835;52.778;5.956;2023-10-31T14:27:42;13.50;99.90
61896;DHT22;47835;52.778;5.956;2023-10-31T14:30:09;13.50;99.90
61896;DHT22;47835;52.778;5.956;2023-10-31T14:32:35;13.60;99.90
61896;DHT22;47835;52.778;5.956;2023-10-31T14:35:01;13.60;99.90
61896;DHT22;47835;52.778;5.956;2023-10-31T14:37:27;13.30;99.90
61896;DHT22;47835;52.778;5.956;2023-10-31T14:39:53;13.20;99.90
61896;DHT22;47835;52.778;5.956;2023-10-31T14:42:21;13.10;99.90
61896;DHT22;47835;52.778;5.956;2023-10-31T14:44:47;13.00;99.90
61896;DHT22;47835;52.778;5.956;2023-10-31T14:47:13;12.90;99.90
61896;DHT22;47835;52.778;5.956;2023-10-31T14:49:38;12.90;99.90
61896;DHT22;47835;52.778;5.956;2023-10-31T14:52:04;12.80;99.90
61896;DHT22;47835;52.778;5.956;2023-10-31T14:54:33;12.60;99.90
61896;DHT22;47835;52.778;5.956;2023-10-31T14:57:01;12.50;99.90
61896;DHT22;47835;52.778;5.956;2023-10-31T14:59:26;12.40;99.90
61896;DHT22;47835;52.778;5.956;2023-10-31T15:01:52;12.30;99.90
61896;DHT22;47835;52.778;5.956;2023-10-31T15:04:18;12.20;99.90
61896;DHT22;47835;52.778;5.956;2023-10-31T15:06:43;12.30;99.90
61896;DHT22;47835;52.778;5.956;2023-10-31T15:09:09;12.10;99.90
61896;DHT22;47835;52.778;5.956;2023-10-31T15:11:35;12.20;99.90
61896;DHT22;47835;52.778;5.956;2023-10-31T15:14:01;12.20;99.90
61896;DHT22;47835;52.778;5.956;2023-10-31T15:16:28;12.20;99.90
61896;DHT22;47835;52.778;5.956;2023-10-31T15:18:54;12.20;99.90
61896;DHT22;47835;52.778;5.956;2023-10-31T15:21:39;12.10;99.90
61896;DHT22;47835;52.778;5.956;2023-10-31T15:24:05;12.10;99.90
61896;DHT22;47835;52.778;5.956;2023-10-31T15:26:36;12.00;99.90
61896;DHT22;47835;52.778;5.956;2023-10-31T15:29:02;11.90;99.90
61896;DHT22;47835;52.778;5.956;2023-10-31T15:31:28;11.90;99.90
61896;DHT22;47835;52.778;5.956;2023-10-31T15:33:54;11.90;99.90
61896;DHT22;47835;52.778;5.956;2023-10-31T15:36:22;11.90;99.90
61896;DHT22;47835;52.778;5.956;2023-10-31T15:38:48;11.80;99.90
61896;DHT22;47835;52.778;5.956;2023-10-31T15:41:16;11.70;99.90
61896;DHT22;47835;52.778;5.956;2023-10-31T15:43:44;11.70;99.90
61896;DHT22;47835;52.778;5.956;2023-10-31T15:46:11;11.70;99.90
61896;DHT22;47835;52.778;5.956;2023-10-31T15:48:36;11.70;99.90